createdAt,value
2024-04-30T00:00:40.692Z,1006
2024-04-30T00:01:40.755Z,1006
2024-04-30T00:02:41.512Z,1006
2024-04-30T00:03:40.659Z,1006
2024-04-30T00:04:40.705Z,1006
2024-04-30T00:05:40.667Z,1006
2024-04-30T00:06:40.651Z,1006
2024-04-30T00:07:41.285Z,1006
2024-04-30T00:08:40.790Z,1006
2024-04-30T00:09:40.639Z,1006
2024-04-30T00:10:40.717Z,1006
2024-04-30T00:11:40.714Z,1006
2024-04-30T00:12:41.180Z,1006
2024-04-30T00:13:41.304Z,1006
2024-04-30T00:14:41.473Z,1006
2024-04-30T00:15:41.300Z,1006
2024-04-30T00:16:41.503Z,1006
2024-04-30T00:17:41.415Z,1006
2024-04-30T00:18:40.665Z,1006
2024-04-30T00:19:40.719Z,1006
2024-04-30T00:20:40.650Z,1006
2024-04-30T00:21:41.075Z,1006
2024-04-30T00:22:40.709Z,1006
2024-04-30T00:23:40.658Z,1006
2024-04-30T00:24:41.275Z,1006
2024-04-30T00:25:40.654Z,1006
2024-04-30T00:27:43.283Z,1006
2024-04-30T00:28:40.648Z,1006
2024-04-30T00:29:40.667Z,1006
2024-04-30T00:30:40.658Z,1006
2024-04-30T00:32:40.689Z,1006
2024-04-30T00:33:41.467Z,1006
2024-04-30T00:34:41.366Z,1006
2024-04-30T00:35:41.391Z,1006
2024-04-30T00:36:41.047Z,1006
2024-04-30T00:37:41.155Z,1006
2024-04-30T00:38:40.730Z,1006
2024-04-30T00:39:40.669Z,1006
2024-04-30T00:40:40.732Z,1006
2024-04-30T00:41:40.794Z,1006
2024-04-30T00:42:41.406Z,1006
2024-04-30T00:44:45.950Z,1006
2024-04-30T00:46:41.149Z,1006
2024-04-30T00:47:41.557Z,1006
2024-04-30T00:48:40.751Z,1006
2024-04-30T00:49:40.836Z,1006
2024-04-30T00:50:40.876Z,1006
2024-04-30T00:51:40.653Z,1006
2024-04-30T00:52:41.295Z,1006
2024-04-30T00:53:40.692Z,1006
2024-04-30T00:54:40.661Z,1006
2024-04-30T00:55:41.601Z,1006
2024-04-30T00:56:39.733Z,1006
2024-04-30T00:57:40.652Z,1006
2024-04-30T00:58:40.714Z,1006
2024-04-30T00:59:41.537Z,1006
2024-04-30T01:00:40.678Z,1006
2024-04-30T01:01:41.276Z,1006
2024-04-30T01:02:40.664Z,1006
2024-04-30T01:03:41.512Z,1006
2024-04-30T01:04:41.420Z,1006
2024-04-30T01:05:40.662Z,1006
2024-04-30T01:06:40.677Z,1006
2024-04-30T01:07:41.238Z,1006
2024-04-30T01:08:40.660Z,1006
2024-04-30T01:09:41.410Z,1006
2024-04-30T01:10:40.733Z,1006
2024-04-30T01:11:40.682Z,1006
2024-04-30T01:12:41.053Z,1006
2024-04-30T01:13:40.718Z,1006
2024-04-30T01:14:41.466Z,1006
2024-04-30T01:16:40.779Z,1006
2024-04-30T01:17:41.009Z,1006
2024-04-30T01:18:41.460Z,1006
2024-04-30T01:19:41.340Z,1006
2024-04-30T01:20:41.331Z,1006
2024-04-30T01:21:40.663Z,1006
2024-04-30T01:22:41.293Z,1006
2024-04-30T01:23:40.663Z,1006
2024-04-30T01:24:40.727Z,1006
2024-04-30T01:25:40.767Z,1006
2024-04-30T01:26:39.728Z,1006
2024-04-30T01:27:40.656Z,1006
2024-04-30T01:28:40.717Z,1006
2024-04-30T01:29:40.988Z,1006
2024-04-30T01:30:40.660Z,1006
2024-04-30T01:31:41.295Z,1006
2024-04-30T01:32:41.207Z,1006
2024-04-30T01:33:40.663Z,1006
2024-04-30T01:34:41.544Z,1006
2024-04-30T01:35:40.659Z,1006
2024-04-30T01:36:40.677Z,1006
2024-04-30T01:37:40.738Z,1006
2024-04-30T01:38:40.679Z,1006
2024-04-30T01:39:40.668Z,1006
2024-04-30T01:40:40.706Z,1006
2024-04-30T01:41:44.041Z,1006
2024-04-30T01:42:42.044Z,1006
2024-04-30T01:44:40.674Z,1006
2024-04-30T01:45:40.671Z,1006
2024-04-30T01:46:41.042Z,1006
2024-04-30T01:47:40.721Z,1006
2024-04-30T01:48:41.260Z,1006
2024-04-30T01:49:40.708Z,1006
2024-04-30T01:50:40.795Z,1006
2024-04-30T01:51:41.121Z,1006
2024-04-30T01:52:40.672Z,1006
2024-04-30T01:53:40.723Z,1006
2024-04-30T01:54:40.668Z,1005
2024-04-30T01:55:41.571Z,1006
2024-04-30T01:57:40.831Z,1006
2024-04-30T01:58:40.702Z,1006
2024-04-30T01:59:40.683Z,1006
2024-04-30T02:00:40.703Z,1006
2024-04-30T02:01:40.715Z,1006
2024-04-30T02:02:41.379Z,1006
2024-04-30T02:03:40.706Z,1006
2024-04-30T02:04:46.559Z,1006
2024-04-30T02:05:40.666Z,1006
2024-04-30T02:06:40.667Z,1006
2024-04-30T02:07:41.551Z,1006
2024-04-30T02:08:41.170Z,1006
2024-04-30T02:09:40.960Z,1005
2024-04-30T02:10:40.708Z,1006
2024-04-30T02:11:40.761Z,1005
2024-04-30T02:12:40.685Z,1005
2024-04-30T02:13:40.734Z,1005
2024-04-30T02:14:41.206Z,1005
2024-04-30T02:15:40.666Z,1005
2024-04-30T02:16:41.475Z,1005
2024-04-30T02:17:40.741Z,1005
2024-04-30T02:18:40.790Z,1005
2024-04-30T02:19:40.706Z,1005
2024-04-30T02:20:41.551Z,1006
2024-04-30T02:21:40.669Z,1005
2024-04-30T02:22:51.695Z,1005
2024-04-30T02:24:40.663Z,1005
2024-04-30T02:25:40.868Z,1005
2024-04-30T02:26:39.799Z,1005
2024-04-30T02:27:41.119Z,1005
2024-04-30T02:28:40.712Z,1005
2024-04-30T02:29:41.156Z,1005
2024-04-30T02:30:40.672Z,1005
2024-04-30T02:31:41.620Z,1005
2024-04-30T02:32:40.763Z,1005
2024-04-30T02:33:41.460Z,1005
2024-04-30T02:34:40.715Z,1005
2024-04-30T02:35:41.051Z,1005
2024-04-30T02:36:41.341Z,1005
2024-04-30T02:37:40.718Z,1005
2024-04-30T02:38:40.691Z,1005
2024-04-30T02:39:41.282Z,1005
2024-04-30T02:40:40.714Z,1005
2024-04-30T02:41:40.690Z,1005
2024-04-30T02:42:41.300Z,1005
2024-04-30T02:44:42.338Z,1005
2024-04-30T02:46:41.332Z,1005
2024-04-30T02:47:40.746Z,1005
2024-04-30T02:48:41.058Z,1005
2024-04-30T02:49:41.594Z,1005
2024-04-30T02:50:40.674Z,1005
2024-04-30T02:51:40.720Z,1005
2024-04-30T02:52:40.696Z,1005
2024-04-30T02:53:42.557Z,1005
2024-04-30T02:54:40.666Z,1005
2024-04-30T02:55:41.882Z,1005
2024-04-30T02:56:40.019Z,1005
2024-04-30T02:57:40.687Z,1005
2024-04-30T02:58:40.745Z,1005
2024-04-30T02:59:47.010Z,1005
2024-04-30T03:00:40.713Z,1005
2024-04-30T03:01:40.822Z,1005
2024-04-30T03:02:41.136Z,1005
2024-04-30T03:03:40.696Z,1005
2024-04-30T03:04:40.703Z,1005
2024-04-30T03:05:40.695Z,1005
2024-04-30T03:06:40.789Z,1005
2024-04-30T03:07:40.677Z,1005
2024-04-30T03:08:40.692Z,1005
2024-04-30T03:09:41.374Z,1005
2024-04-30T03:11:40.672Z,1005
2024-04-30T03:12:40.890Z,1005
2024-04-30T03:13:40.729Z,1005
2024-04-30T03:14:40.702Z,1005
2024-04-30T03:15:41.614Z,1005
2024-04-30T03:16:40.832Z,1005
2024-04-30T03:17:41.228Z,1005
2024-04-30T03:18:41.369Z,1005
2024-04-30T03:19:41.355Z,1005
2024-04-30T03:20:40.672Z,1005
2024-04-30T03:21:41.328Z,1005
2024-04-30T03:23:40.672Z,1005
2024-04-30T03:24:41.253Z,1005
2024-04-30T03:25:40.832Z,1005
2024-04-30T03:26:40.453Z,1005
2024-04-30T03:27:41.631Z,1005
2024-04-30T03:28:41.294Z,1005
2024-04-30T03:29:40.799Z,1005
2024-04-30T03:30:40.709Z,1005
2024-04-30T03:31:41.496Z,1005
2024-04-30T03:32:40.801Z,1005
2024-04-30T03:33:41.094Z,1005
2024-04-30T03:34:42.093Z,1005
2024-04-30T03:35:40.685Z,1005
2024-04-30T03:36:40.694Z,1005
2024-04-30T03:37:41.291Z,1005
2024-04-30T03:38:41.218Z,1005
2024-04-30T03:39:40.683Z,1005
2024-04-30T03:40:40.786Z,1005
2024-04-30T03:41:40.682Z,1005
2024-04-30T03:42:40.690Z,1005
2024-04-30T03:43:41.572Z,1005
2024-04-30T03:44:40.804Z,1005
2024-04-30T03:45:40.692Z,1005
2024-04-30T03:46:40.979Z,1005
2024-04-30T03:47:41.424Z,1005
2024-04-30T03:48:40.680Z,1005
2024-04-30T03:49:40.801Z,1005
2024-04-30T03:50:41.533Z,1005
2024-04-30T03:51:40.687Z,1005
2024-04-30T03:52:42.980Z,1005
2024-04-30T03:53:40.747Z,1005
2024-04-30T03:54:41.499Z,1005
2024-04-30T03:55:40.749Z,1005
2024-04-30T03:56:40.690Z,1005
2024-04-30T03:57:41.176Z,1005
2024-04-30T03:58:40.819Z,1005
2024-04-30T03:59:40.669Z,1005
2024-04-30T04:00:41.132Z,1005
2024-04-30T04:01:40.737Z,1005
2024-04-30T04:03:40.697Z,1005
2024-04-30T04:04:40.754Z,1005
2024-04-30T04:05:40.716Z,1005
2024-04-30T04:06:41.478Z,1005
2024-04-30T04:07:40.753Z,1005
2024-04-30T04:08:40.687Z,1005
2024-04-30T04:09:40.717Z,1005
2024-04-30T04:10:41.283Z,1005
2024-04-30T04:11:40.741Z,1005
2024-04-30T04:12:40.702Z,1005
2024-04-30T04:13:44.258Z,1005
2024-04-30T04:14:42.699Z,1005
2024-04-30T04:15:41.449Z,1005
2024-04-30T04:16:40.789Z,1005
2024-04-30T04:17:41.557Z,1005
2024-04-30T04:18:40.808Z,1005
2024-04-30T04:19:40.784Z,1005
2024-04-30T04:20:40.687Z,1005
2024-04-30T04:21:41.427Z,1005
2024-04-30T04:22:49.996Z,1005
2024-04-30T04:24:40.721Z,1005
2024-04-30T04:26:03.652Z,1005
2024-04-30T04:26:39.887Z,1005
2024-04-30T04:27:40.698Z,1005
2024-04-30T04:28:41.093Z,1005
2024-04-30T04:29:40.971Z,1005
2024-04-30T04:30:41.028Z,1005
2024-04-30T04:32:40.788Z,1005
2024-04-30T04:33:41.171Z,1005
2024-04-30T04:34:40.704Z,1005
2024-04-30T04:35:41.177Z,1005
2024-04-30T04:36:40.755Z,1005
2024-04-30T04:37:41.601Z,1005
2024-04-30T04:38:40.692Z,1005
2024-04-30T04:39:40.715Z,1005
2024-04-30T04:40:40.801Z,1005
2024-04-30T04:41:40.977Z,1005
2024-04-30T04:42:40.754Z,1005
2024-04-30T04:43:40.848Z,1005
2024-04-30T04:44:40.696Z,1005
2024-04-30T04:45:40.687Z,1005
2024-04-30T04:46:40.892Z,1005
2024-04-30T04:47:40.752Z,1005
2024-04-30T04:48:40.789Z,1005
2024-04-30T04:49:40.706Z,1005
2024-04-30T04:50:40.735Z,1005
2024-04-30T04:51:41.413Z,1005
2024-04-30T04:52:40.731Z,1005
2024-04-30T04:53:40.703Z,1005
2024-04-30T04:54:40.705Z,1005
2024-04-30T04:55:40.794Z,1005
2024-04-30T04:56:41.543Z,1005
2024-04-30T04:58:40.918Z,1005
2024-04-30T04:59:40.772Z,1005
2024-04-30T05:00:40.729Z,1005
2024-04-30T05:01:40.945Z,1005
2024-04-30T05:02:40.756Z,1005
2024-04-30T05:04:40.710Z,1005
2024-04-30T05:05:40.694Z,1005
2024-04-30T05:06:40.732Z,1005
2024-04-30T05:07:40.830Z,1005
2024-04-30T05:08:40.733Z,1005
2024-04-30T05:09:40.702Z,1005
2024-04-30T05:11:40.699Z,1005
2024-04-30T05:12:41.165Z,1005
2024-04-30T05:13:41.090Z,1005
2024-04-30T05:14:40.706Z,1005
2024-04-30T05:15:40.703Z,1005
2024-04-30T05:16:40.856Z,1005
2024-04-30T05:17:40.871Z,1005
2024-04-30T05:18:40.695Z,1005
2024-04-30T05:19:40.725Z,1005
2024-04-30T05:20:40.706Z,1005
2024-04-30T05:21:40.786Z,1005
2024-04-30T05:22:40.934Z,1005
2024-04-30T05:24:40.729Z,1005
2024-04-30T05:25:40.947Z,1005
2024-04-30T05:26:39.782Z,1005
2024-04-30T05:27:40.702Z,1005
2024-04-30T05:28:40.737Z,1005
2024-04-30T05:29:40.703Z,1005
2024-04-30T05:30:41.362Z,1005
2024-04-30T05:31:40.795Z,1005
2024-04-30T05:32:40.864Z,1005
2024-04-30T05:33:41.664Z,1005
2024-04-30T05:34:40.767Z,1005
2024-04-30T05:35:40.678Z,1005
2024-04-30T05:36:41.376Z,1005
2024-04-30T05:37:40.730Z,1005
2024-04-30T05:38:40.717Z,1005
2024-04-30T05:39:47.562Z,1005
2024-04-30T05:41:40.705Z,1005
2024-04-30T05:42:40.820Z,1005
2024-04-30T05:44:40.698Z,1004
2024-04-30T05:45:41.120Z,1004
2024-04-30T05:46:40.797Z,1004
2024-04-30T05:47:41.553Z,1004
2024-04-30T05:48:41.328Z,1004
2024-04-30T05:49:40.752Z,1005
2024-04-30T05:50:40.699Z,1004
2024-04-30T05:51:41.471Z,1004
2024-04-30T05:53:40.712Z,1004
2024-04-30T05:54:41.328Z,1004
2024-04-30T05:55:40.829Z,1004
2024-04-30T05:56:40.376Z,1004
2024-04-30T05:57:41.044Z,1004
2024-04-30T05:58:41.382Z,1004
2024-04-30T05:59:41.516Z,1004
2024-04-30T06:00:41.548Z,1004
2024-04-30T06:01:40.705Z,1004
2024-04-30T06:02:40.720Z,1004
2024-04-30T06:03:40.751Z,1004
2024-04-30T06:04:40.831Z,1004
2024-04-30T06:05:40.700Z,1004
2024-04-30T06:06:40.783Z,1004
2024-04-30T06:07:41.166Z,1004
2024-04-30T06:08:41.780Z,1004
2024-04-30T06:09:41.046Z,1004
2024-04-30T06:10:40.828Z,1004
2024-04-30T06:11:40.743Z,1004
2024-04-30T06:12:47.368Z,1004
2024-04-30T06:14:40.735Z,1004
2024-04-30T06:15:41.382Z,1004
2024-04-30T06:16:40.762Z,1004
2024-04-30T06:17:40.746Z,1004
2024-04-30T06:18:41.410Z,1004
2024-04-30T06:19:40.850Z,1004
2024-04-30T06:20:40.702Z,1004
2024-04-30T06:21:41.670Z,1004
2024-04-30T06:22:40.791Z,1004
2024-04-30T06:23:40.705Z,1004
2024-04-30T06:24:41.255Z,1004
2024-04-30T06:25:40.789Z,1004
2024-04-30T06:26:40.630Z,1004
2024-04-30T06:27:40.734Z,1004
2024-04-30T06:28:40.942Z,1004
2024-04-30T06:29:40.962Z,1004
2024-04-30T06:30:40.713Z,1004
2024-04-30T06:32:41.654Z,1004
2024-04-30T06:33:40.766Z,1004
2024-04-30T06:34:43.528Z,1004
2024-04-30T06:35:40.715Z,1004
2024-04-30T06:36:47.990Z,1004
2024-04-30T06:38:40.773Z,1004
2024-04-30T06:39:41.201Z,1004
2024-04-30T06:42:41.138Z,1004
2024-04-30T06:43:40.755Z,1004
2024-04-30T06:44:41.031Z,1004
2024-04-30T06:45:40.849Z,1004
2024-04-30T06:46:40.760Z,1004
2024-04-30T06:47:41.650Z,1004
2024-04-30T06:48:40.869Z,1004
2024-04-30T06:49:40.776Z,1004
2024-04-30T06:50:40.703Z,1004
2024-04-30T06:51:40.722Z,1004
2024-04-30T06:52:40.796Z,1004
2024-04-30T06:53:41.125Z,1004
2024-04-30T06:54:41.732Z,1004
2024-04-30T06:55:40.769Z,1004
2024-04-30T06:56:39.917Z,1004
2024-04-30T06:57:40.786Z,1004
2024-04-30T06:58:40.828Z,1004
2024-04-30T06:59:40.717Z,1004
2024-04-30T07:00:40.785Z,1004
2024-04-30T07:01:40.836Z,1004
2024-04-30T07:02:48.216Z,1004
2024-04-30T07:04:41.016Z,1004
2024-04-30T07:05:41.764Z,1004
2024-04-30T07:06:40.746Z,1004
2024-04-30T07:07:41.284Z,1004
2024-04-30T07:08:40.730Z,1004
2024-04-30T07:09:41.426Z,1004
2024-04-30T07:10:40.919Z,1004
2024-04-30T07:11:40.898Z,1004
2024-04-30T07:12:41.569Z,1004
2024-04-30T07:13:40.897Z,1004
2024-04-30T07:14:40.777Z,1004
2024-04-30T07:15:40.740Z,1004
2024-04-30T07:16:48.555Z,1004
2024-04-30T07:17:40.767Z,1004
2024-04-30T07:18:40.769Z,1004
2024-04-30T07:19:41.317Z,1004
2024-04-30T07:20:46.535Z,1004
2024-04-30T07:21:40.732Z,1004
2024-04-30T07:22:40.891Z,1004
2024-04-30T07:23:41.091Z,1003
2024-04-30T07:24:40.728Z,1004
2024-04-30T07:25:41.628Z,1003
2024-04-30T07:26:40.133Z,1004
2024-04-30T07:27:40.797Z,1004
2024-04-30T07:28:40.813Z,1004
2024-04-30T07:29:40.714Z,1004
2024-04-30T07:30:40.731Z,1004
2024-04-30T07:31:41.119Z,1004
2024-04-30T07:32:40.772Z,1004
2024-04-30T07:33:40.853Z,1004
2024-04-30T07:34:41.581Z,1004
2024-04-30T07:35:44.087Z,1004
2024-04-30T07:37:45.901Z,1004
2024-04-30T07:38:40.791Z,1004
2024-04-30T07:39:40.831Z,1004
2024-04-30T07:40:41.423Z,1004
2024-04-30T07:41:41.303Z,1004
2024-04-30T07:42:40.897Z,1004
2024-04-30T07:44:40.747Z,1004
2024-04-30T07:45:40.735Z,1004
2024-04-30T07:48:40.769Z,1004
2024-04-30T07:49:40.731Z,1004
2024-04-30T07:50:40.723Z,1004
2024-04-30T07:51:41.293Z,1004
2024-04-30T07:53:40.722Z,1004
2024-04-30T07:54:40.736Z,1004
2024-04-30T07:55:40.816Z,1004
2024-04-30T07:56:39.808Z,1004
2024-04-30T07:57:40.773Z,1004
2024-04-30T07:58:40.752Z,1004
2024-04-30T07:59:40.779Z,1004
2024-04-30T08:00:41.033Z,1004
2024-04-30T08:01:40.786Z,1004
2024-04-30T08:02:40.777Z,1004
2024-04-30T08:03:40.763Z,1004
2024-04-30T08:04:40.759Z,1004
2024-04-30T08:05:43.172Z,1004
2024-04-30T08:06:41.307Z,1004
2024-04-30T08:07:40.833Z,1004
2024-04-30T08:08:40.737Z,1004
2024-04-30T08:09:40.743Z,1004
2024-04-30T08:10:40.813Z,1004
2024-04-30T08:11:41.029Z,1004
2024-04-30T08:12:40.727Z,1004
2024-04-30T08:13:41.343Z,1004
2024-04-30T08:14:41.693Z,1004
2024-04-30T08:15:45.269Z,1004
2024-04-30T08:17:40.800Z,1004
2024-04-30T08:18:40.743Z,1004
2024-04-30T08:19:41.101Z,1003
2024-04-30T08:20:40.743Z,1003
2024-04-30T08:21:40.844Z,1003
2024-04-30T08:22:40.753Z,1003
2024-04-30T08:23:40.856Z,1003
2024-04-30T08:24:41.126Z,1003
2024-04-30T08:25:41.265Z,1003
2024-04-30T08:26:40.594Z,1003
2024-04-30T08:27:41.572Z,1003
2024-04-30T08:28:40.771Z,1003
2024-04-30T08:29:40.747Z,1003
2024-04-30T08:30:40.761Z,1003
2024-04-30T08:31:40.776Z,1003
2024-04-30T08:32:41.174Z,1003
2024-04-30T08:33:41.671Z,1003
2024-04-30T08:34:41.552Z,1003
2024-04-30T08:35:40.740Z,1003
2024-04-30T08:36:40.741Z,1003
2024-04-30T08:37:51.231Z,1003
2024-04-30T08:38:41.163Z,1003
2024-04-30T08:39:41.125Z,1003
2024-04-30T08:40:41.150Z,1003
2024-04-30T08:41:41.404Z,1003
2024-04-30T08:42:41.404Z,1003
2024-04-30T08:43:41.380Z,1003
2024-04-30T08:44:40.741Z,1003
2024-04-30T08:45:40.906Z,1003
2024-04-30T08:46:40.832Z,1003
2024-04-30T08:47:40.885Z,1003
2024-04-30T08:48:40.768Z,1003
2024-04-30T08:49:46.958Z,1003
2024-04-30T08:50:40.905Z,1003
2024-04-30T08:51:40.749Z,1003
2024-04-30T08:52:40.836Z,1003
2024-04-30T08:53:41.617Z,1003
2024-04-30T08:54:40.750Z,1003
2024-04-30T08:55:40.863Z,1003
2024-04-30T08:56:39.835Z,1003
2024-04-30T08:57:40.747Z,1003
2024-04-30T08:58:40.804Z,1003
2024-04-30T08:59:41.239Z,1003
2024-04-30T09:00:48.700Z,1003
2024-04-30T09:01:41.121Z,1003
2024-04-30T09:02:40.865Z,1003
2024-04-30T09:03:40.790Z,1003
2024-04-30T09:04:40.852Z,1003
2024-04-30T09:05:40.744Z,1003
2024-04-30T09:06:40.954Z,1003
2024-04-30T09:07:40.793Z,1003
2024-04-30T09:08:41.887Z,1003
2024-04-30T09:09:40.745Z,1003
2024-04-30T09:10:41.036Z,1003
2024-04-30T09:11:40.836Z,1003
2024-04-30T09:12:40.752Z,1003
2024-04-30T09:13:40.787Z,1003
2024-04-30T09:14:40.946Z,1003
2024-04-30T09:15:41.444Z,1003
2024-04-30T09:17:41.242Z,1003
2024-04-30T09:18:41.351Z,1003
2024-04-30T09:19:40.882Z,1003
2024-04-30T09:20:40.861Z,1003
2024-04-30T09:21:42.466Z,1003
2024-04-30T09:22:40.860Z,1003
2024-04-30T09:23:40.756Z,1003
2024-04-30T09:24:41.106Z,1003
2024-04-30T09:25:40.895Z,1003
2024-04-30T09:26:39.876Z,1003
2024-04-30T09:27:40.785Z,1003
2024-04-30T09:28:40.870Z,1003
2024-04-30T09:30:41.469Z,1003
2024-04-30T09:31:40.880Z,1003
2024-04-30T09:32:40.836Z,1003
2024-04-30T09:33:41.459Z,1003
2024-04-30T09:34:41.245Z,1003
2024-04-30T09:35:40.753Z,1003
2024-04-30T09:36:40.760Z,1003
2024-04-30T09:37:41.527Z,1003
2024-04-30T09:39:41.617Z,1003
2024-04-30T09:40:41.402Z,1003
2024-04-30T09:41:41.091Z,1003
2024-04-30T09:42:41.252Z,1003
2024-04-30T09:43:41.058Z,1003
2024-04-30T09:44:40.762Z,1003
2024-04-30T09:45:41.087Z,1003
2024-04-30T09:46:41.397Z,1003
2024-04-30T09:47:40.797Z,1003
2024-04-30T09:48:41.273Z,1003
2024-04-30T09:49:40.800Z,1003
2024-04-30T09:50:40.759Z,1003
2024-04-30T09:51:41.574Z,1003
2024-04-30T09:52:40.843Z,1003
2024-04-30T09:53:41.352Z,1003
2024-04-30T09:54:40.762Z,1003
2024-04-30T09:55:41.019Z,1003
2024-04-30T09:56:40.150Z,1003
2024-04-30T09:57:40.998Z,1003
2024-04-30T09:58:41.171Z,1003
2024-04-30T09:59:40.831Z,1003
2024-04-30T10:00:40.793Z,1003
2024-04-30T10:01:40.866Z,1003
2024-04-30T10:02:40.774Z,1003
2024-04-30T10:03:40.777Z,1003
2024-04-30T10:04:40.856Z,1003
2024-04-30T10:05:41.702Z,1003
2024-04-30T10:06:40.769Z,1003
2024-04-30T10:07:40.904Z,1003
2024-04-30T10:08:40.788Z,1003
2024-04-30T10:09:41.550Z,1003
2024-04-30T10:10:40.810Z,1003
2024-04-30T10:11:40.796Z,1003
2024-04-30T10:12:41.069Z,1003
2024-04-30T10:13:41.007Z,1003
2024-04-30T10:14:40.896Z,1003
2024-04-30T10:15:40.793Z,1003
2024-04-30T10:16:42.259Z,1003
2024-04-30T10:18:40.849Z,1003
2024-04-30T10:19:41.056Z,1003
2024-04-30T10:20:40.942Z,1003
2024-04-30T10:21:40.780Z,1002
2024-04-30T10:22:41.131Z,1002
2024-04-30T10:23:40.848Z,1002
2024-04-30T10:24:40.787Z,1003
2024-04-30T10:25:40.971Z,1002
2024-04-30T10:26:41.721Z,1002
2024-04-30T10:27:40.794Z,1003
2024-04-30T10:28:40.929Z,1003
2024-04-30T10:29:41.212Z,1002
2024-04-30T10:30:40.924Z,1002
2024-04-30T10:31:40.847Z,1002
2024-04-30T10:32:40.806Z,1002
2024-04-30T10:33:40.871Z,1002
2024-04-30T10:34:40.963Z,1002
2024-04-30T10:35:40.993Z,1002
2024-04-30T10:36:40.798Z,1002
2024-04-30T10:37:40.811Z,1002
2024-04-30T10:38:41.482Z,1002
2024-04-30T10:39:40.795Z,1002
2024-04-30T10:40:40.890Z,1002
2024-04-30T10:41:41.197Z,1002
2024-04-30T10:42:40.847Z,1002
2024-04-30T10:44:41.055Z,1002
2024-04-30T10:45:40.795Z,1002
2024-04-30T10:46:40.880Z,1002
2024-04-30T10:47:40.873Z,1002
2024-04-30T10:48:40.811Z,1002
2024-04-30T10:49:41.601Z,1002
2024-04-30T10:50:40.803Z,1002
2024-04-30T10:51:40.784Z,1002
2024-04-30T10:52:40.880Z,1002
2024-04-30T10:53:40.870Z,1002
2024-04-30T10:54:59.543Z,1002
2024-04-30T10:56:39.879Z,1002
2024-04-30T10:57:40.779Z,1002
2024-04-30T10:59:40.868Z,1002
2024-04-30T11:00:41.143Z,1002
2024-04-30T11:01:40.823Z,1002
2024-04-30T11:02:40.810Z,1002
2024-04-30T11:03:40.810Z,1002
2024-04-30T11:04:40.955Z,1002
2024-04-30T11:05:41.156Z,1002
2024-04-30T11:06:40.889Z,1002
2024-04-30T11:07:40.870Z,1002
2024-04-30T11:08:40.811Z,1002
2024-04-30T11:09:41.076Z,1002
2024-04-30T11:10:40.826Z,1002
2024-04-30T11:11:40.853Z,1002
2024-04-30T11:12:40.804Z,1002
2024-04-30T11:13:40.926Z,1002
2024-04-30T11:14:41.362Z,1002
2024-04-30T11:15:40.880Z,1002
2024-04-30T11:16:40.834Z,1002
2024-04-30T11:17:40.832Z,1002
2024-04-30T11:18:40.865Z,1002
2024-04-30T11:19:41.050Z,1002
2024-04-30T11:20:40.815Z,1002
2024-04-30T11:21:40.796Z,1002
2024-04-30T11:22:40.880Z,1002
2024-04-30T11:23:40.813Z,1002
2024-04-30T11:24:40.799Z,1002
2024-04-30T11:25:45.466Z,1002
2024-04-30T11:26:40.505Z,1002
2024-04-30T11:27:41.330Z,1002
2024-04-30T11:28:41.690Z,1002
2024-04-30T11:29:41.502Z,1002
2024-04-30T11:30:41.122Z,1002
2024-04-30T11:31:40.945Z,1002
2024-04-30T11:32:40.983Z,1002
2024-04-30T11:33:40.898Z,1002
2024-04-30T11:34:41.026Z,1002
2024-04-30T11:35:40.800Z,1002
2024-04-30T11:36:40.800Z,1002
2024-04-30T11:37:41.452Z,1002
2024-04-30T11:39:41.048Z,1002
2024-04-30T11:40:41.319Z,1002
2024-04-30T11:41:48.679Z,1002
2024-04-30T11:42:44.698Z,1002
2024-04-30T11:43:41.751Z,1001
2024-04-30T11:44:40.829Z,1001
2024-04-30T11:45:41.183Z,1001
2024-04-30T11:46:44.203Z,1001
2024-04-30T11:47:40.948Z,1001
2024-04-30T11:48:40.916Z,1001
2024-04-30T11:49:40.961Z,1001
2024-04-30T11:50:40.804Z,1001
2024-04-30T11:51:41.032Z,1001
2024-04-30T11:52:41.456Z,1001
2024-04-30T11:53:40.895Z,1001
2024-04-30T11:54:40.790Z,1001
2024-04-30T11:55:40.929Z,1001
2024-04-30T11:56:39.945Z,1001
2024-04-30T11:57:40.983Z,1001
2024-04-30T11:58:41.077Z,1001
2024-04-30T11:59:40.846Z,1001
2024-04-30T12:00:41.652Z,1001
2024-04-30T12:01:41.699Z,1001
2024-04-30T12:02:41.326Z,1001
2024-04-30T12:03:41.325Z,1001
2024-04-30T12:04:41.072Z,1001
2024-04-30T12:05:40.845Z,1001
2024-04-30T12:06:40.875Z,1001
2024-04-30T12:08:40.826Z,1001
2024-04-30T12:09:41.130Z,1001
2024-04-30T12:10:41.176Z,1001
2024-04-30T12:11:40.872Z,1001
2024-04-30T12:12:41.559Z,1001
2024-04-30T12:13:40.958Z,1001
2024-04-30T12:14:41.500Z,1001
2024-04-30T12:15:41.557Z,1001
2024-04-30T12:16:43.166Z,1001
2024-04-30T12:17:41.083Z,1001
2024-04-30T12:18:40.837Z,1001
2024-04-30T12:19:40.886Z,1001
2024-04-30T12:20:43.227Z,1001
2024-04-30T12:21:40.838Z,1001
2024-04-30T12:22:41.471Z,1001
2024-04-30T12:23:40.820Z,1001
2024-04-30T12:24:40.807Z,1001
2024-04-30T12:25:41.527Z,1001
2024-04-30T12:26:40.241Z,1001
2024-04-30T12:27:40.823Z,1001
2024-04-30T12:28:40.946Z,1001
2024-04-30T12:29:40.851Z,1001
2024-04-30T12:30:40.869Z,1001
2024-04-30T12:31:41.227Z,1001
2024-04-30T12:32:42.167Z,1001
2024-04-30T12:34:40.946Z,1001
2024-04-30T12:35:40.842Z,1001
2024-04-30T12:36:39.909Z,1001
2024-04-30T12:37:41.251Z,1001
2024-04-30T12:38:41.042Z,1001
2024-04-30T12:39:40.877Z,1001
2024-04-30T12:40:40.920Z,1001
2024-04-30T12:41:41.478Z,1001
2024-04-30T12:42:41.592Z,1001
2024-04-30T12:44:40.972Z,1001
2024-04-30T12:45:41.341Z,1001
2024-04-30T12:47:40.953Z,1001
2024-04-30T12:48:41.532Z,1001
2024-04-30T12:49:41.063Z,1001
2024-04-30T12:50:40.876Z,1001
2024-04-30T12:51:40.839Z,1001
2024-04-30T12:52:41.580Z,1001
2024-04-30T12:53:40.975Z,1001
2024-04-30T12:54:40.820Z,1001
2024-04-30T12:55:41.088Z,1001
2024-04-30T12:56:40.262Z,1001
2024-04-30T12:57:41.470Z,1000
2024-04-30T12:58:40.944Z,1000
2024-04-30T12:59:41.437Z,1000
2024-04-30T13:00:40.859Z,1000
2024-04-30T13:01:41.821Z,1000
2024-04-30T13:03:40.825Z,1000
2024-04-30T13:04:40.893Z,1000
2024-04-30T13:05:41.122Z,1000
2024-04-30T13:06:41.567Z,1000
2024-04-30T13:08:40.842Z,1000
2024-04-30T13:09:42.453Z,1000
2024-04-30T13:10:41.089Z,1000
2024-04-30T13:11:40.872Z,1000
2024-04-30T13:12:41.736Z,1000
2024-04-30T13:13:41.140Z,1000
2024-04-30T13:14:41.204Z,1000
2024-04-30T13:15:40.841Z,1000
2024-04-30T13:16:40.971Z,1000
2024-04-30T13:17:40.935Z,1000
2024-04-30T13:18:40.905Z,1000
2024-04-30T13:19:41.101Z,1000
2024-04-30T13:20:40.993Z,1000
2024-04-30T13:21:40.849Z,1000
2024-04-30T13:22:40.905Z,1000
2024-04-30T13:23:41.773Z,1000
2024-04-30T13:24:46.251Z,1000
2024-04-30T13:25:40.958Z,1000
2024-04-30T13:26:43.142Z,1000
2024-04-30T13:28:40.945Z,1000
2024-04-30T13:30:41.391Z,1000
2024-04-30T13:31:40.914Z,1000
2024-04-30T13:32:41.038Z,1000
2024-04-30T13:33:41.134Z,1000
2024-04-30T13:34:40.967Z,1000
2024-04-30T13:35:40.951Z,1000
2024-04-30T13:36:40.852Z,1000
2024-04-30T13:37:41.897Z,1000
2024-04-30T13:38:40.848Z,1000
2024-04-30T13:39:41.205Z,1000
2024-04-30T13:40:41.068Z,1000
2024-04-30T13:41:40.851Z,1000
2024-04-30T13:42:40.906Z,1000
2024-04-30T13:43:40.933Z,1000
2024-04-30T13:44:40.860Z,1000
2024-04-30T13:45:40.894Z,1000
2024-04-30T13:46:41.024Z,1000
2024-04-30T13:47:40.985Z,1000
2024-04-30T13:48:40.969Z,1000
2024-04-30T13:49:41.341Z,1000
2024-04-30T13:50:41.318Z,1000
2024-04-30T13:51:40.981Z,1000
2024-04-30T13:52:43.430Z,1000
2024-04-30T13:53:40.864Z,1000
2024-04-30T13:54:40.879Z,1000
2024-04-30T13:55:41.325Z,1000
2024-04-30T13:56:39.939Z,1000
2024-04-30T13:57:40.958Z,1000
2024-04-30T13:58:40.906Z,1000
2024-04-30T13:59:41.726Z,1000
2024-04-30T14:00:41.571Z,1000
2024-04-30T14:01:40.948Z,1000
2024-04-30T14:02:40.995Z,1000
2024-04-30T14:03:41.523Z,1000
2024-04-30T14:04:40.898Z,1000
2024-04-30T14:05:40.870Z,1000
2024-04-30T14:06:40.871Z,999
2024-04-30T14:07:41.685Z,999
2024-04-30T14:08:40.875Z,999